sensor_id;sensor_type;location;lat;lon;timestamp;P1;durP1;ratioP1;P2;durP2;ratioP2
16502;SDS011;53067;48.114;11.694;2023-03-01T00:01:19;16.27;;;12.27;;
16502;SDS011;53067;48.114;11.694;2023-03-01T00:03:47;15.87;;;12.43;;
16502;SDS011;53067;48.114;11.694;2023-03-01T00:06:16;17.30;;;12.87;;
16502;SDS011;53067;48.114;11.694;2023-03-01T00:08:44;15.00;;;11.80;;
16502;SDS011;53067;48.114;11.694;2023-03-01T00:11:12;16.00;;;12.07;;
16502;SDS011;53067;48.114;11.694;2023-03-01T00:13:43;17.23;;;12.80;;
16502;SDS011;53067;48.114;11.694;2023-03-01T00:16:13;15.80;;;12.40;;
16502;SDS011;53067;48.114;11.694;2023-03-01T00:18:45;17.17;;;12.70;;
16502;SDS011;53067;48.114;11.694;2023-03-01T00:21:12;18.30;;;13.07;;
16502;SDS011;53067;48.114;11.694;2023-03-01T00:23:40;16.13;;;12.20;;
16502;SDS011;53067;48.114;11.694;2023-03-01T00:26:09;14.87;;;11.83;;
16502;SDS011;53067;48.114;11.694;2023-03-01T00:28:47;18.27;;;13.07;;
16502;SDS011;53067;48.114;11.694;2023-03-01T00:31:16;17.40;;;12.40;;
16502;SDS011;53067;48.114;11.694;2023-03-01T00:33:45;17.57;;;12.23;;
16502;SDS011;53067;48.114;11.694;2023-03-01T00:36:13;17.30;;;13.10;;
16502;SDS011;53067;48.114;11.694;2023-03-01T00:38:43;15.43;;;12.57;;
16502;SDS011;53067;48.114;11.694;2023-03-01T00:41:13;15.87;;;12.53;;
16502;SDS011;53067;48.114;11.694;2023-03-01T00:43:42;15.17;;;12.33;;
16502;SDS011;53067;48.114;11.694;2023-03-01T00:46:12;19.10;;;12.57;;
16502;SDS011;53067;48.114;11.694;2023-03-01T00:48:41;17.57;;;12.97;;
16502;SDS011;53067;48.114;11.694;2023-03-01T00:51:10;16.27;;;12.47;;
16502;SDS011;53067;48.114;11.694;2023-03-01T00:53:45;18.73;;;12.00;;
16502;SDS011;53067;48.114;11.694;2023-03-01T00:56:19;21.87;;;13.33;;
16502;SDS011;53067;48.114;11.694;2023-03-01T00:58:47;16.03;;;12.40;;
16502;SDS011;53067;48.114;11.694;2023-03-01T01:01:20;19.63;;;13.43;;
16502;SDS011;53067;48.114;11.694;2023-03-01T01:03:45;14.67;;;11.87;;
16502;SDS011;53067;48.114;11.694;2023-03-01T01:06:19;18.03;;;13.00;;
16502;SDS011;53067;48.114;11.694;2023-03-01T01:08:47;18.33;;;12.57;;
16502;SDS011;53067;48.114;11.694;2023-03-01T01:11:16;17.37;;;12.97;;
16502;SDS011;53067;48.114;11.694;2023-03-01T01:13:45;18.23;;;12.53;;
16502;SDS011;53067;48.114;11.694;2023-03-01T01:16:14;16.80;;;13.07;;
16502;SDS011;53067;48.114;11.694;2023-03-01T01:18:43;18.13;;;12.77;;
16502;SDS011;53067;48.114;11.694;2023-03-01T01:21:13;16.70;;;12.60;;
16502;SDS011;53067;48.114;11.694;2023-03-01T01:23:42;17.87;;;12.73;;
16502;SDS011;53067;48.114;11.694;2023-03-01T01:26:16;14.40;;;11.53;;
16502;SDS011;53067;48.114;11.694;2023-03-01T01:28:46;16.63;;;12.87;;
16502;SDS011;53067;48.114;11.694;2023-03-01T01:31:13;17.23;;;12.20;;
16502;SDS011;53067;48.114;11.694;2023-03-01T01:33:42;18.00;;;12.47;;
16502;SDS011;53067;48.114;11.694;2023-03-01T01:36:10;18.83;;;12.83;;
16502;SDS011;53067;48.114;11.694;2023-03-01T01:38:38;17.73;;;12.63;;
16502;SDS011;53067;48.114;11.694;2023-03-01T01:41:08;20.07;;;12.67;;
16502;SDS011;53067;48.114;11.694;2023-03-01T01:43:43;15.17;;;11.63;;
16502;SDS011;53067;48.114;11.694;2023-03-01T01:46:20;19.07;;;13.13;;
16502;SDS011;53067;48.114;11.694;2023-03-01T01:48:48;16.87;;;12.23;;
16502;SDS011;53067;48.114;11.694;2023-03-01T01:51:18;16.70;;;12.57;;
16502;SDS011;53067;48.114;11.694;2023-03-01T01:53:48;16.53;;;12.50;;
16502;SDS011;53067;48.114;11.694;2023-03-01T01:56:18;14.73;;;12.40;;
16502;SDS011;53067;48.114;11.694;2023-03-01T01:58:46;17.70;;;12.60;;
16502;SDS011;53067;48.114;11.694;2023-03-01T02:01:15;17.93;;;12.17;;
16502;SDS011;53067;48.114;11.694;2023-03-01T02:03:43;15.77;;;12.27;;
16502;SDS011;53067;48.114;11.694;2023-03-01T02:06:15;16.70;;;12.37;;
16502;SDS011;53067;48.114;11.694;2023-03-01T02:08:59;17.87;;;13.40;;
16502;SDS011;53067;48.114;11.694;2023-03-01T02:11:33;16.40;;;12.50;;
16502;SDS011;53067;48.114;11.694;2023-03-01T02:13:59;16.33;;;12.67;;
16502;SDS011;53067;48.114;11.694;2023-03-01T02:16:27;20.03;;;12.83;;
16502;SDS011;53067;48.114;11.694;2023-03-01T02:18:55;14.97;;;11.43;;
16502;SDS011;53067;48.114;11.694;2023-03-01T02:21:30;20.57;;;13.07;;
16502;SDS011;53067;48.114;11.694;2023-03-01T02:24:05;17.37;;;12.83;;
16502;SDS011;53067;48.114;11.694;2023-03-01T02:26:37;16.37;;;12.70;;
16502;SDS011;53067;48.114;11.694;2023-03-01T02:29:09;20.33;;;12.27;;
16502;SDS011;53067;48.114;11.694;2023-03-01T02:31:37;17.13;;;12.87;;
16502;SDS011;53067;48.114;11.694;2023-03-01T02:34:16;16.63;;;12.87;;
16502;SDS011;53067;48.114;11.694;2023-03-01T02:36:43;17.87;;;12.70;;
16502;SDS011;53067;48.114;11.694;2023-03-01T02:39:15;15.87;;;12.43;;
16502;SDS011;53067;48.114;11.694;2023-03-01T02:41:49;17.87;;;12.43;;
16502;SDS011;53067;48.114;11.694;2023-03-01T02:44:19;18.87;;;12.93;;
16502;SDS011;53067;48.114;11.694;2023-03-01T02:46:48;14.60;;;12.27;;
16502;SDS011;53067;48.114;11.694;2023-03-01T02:49:18;16.07;;;12.00;;
16502;SDS011;53067;48.114;11.694;2023-03-01T02:51:52;19.00;;;13.13;;
16502;SDS011;53067;48.114;11.694;2023-03-01T02:54:25;18.93;;;13.23;;
16502;SDS011;53067;48.114;11.694;2023-03-01T02:56:58;17.37;;;12.57;;
16502;SDS011;53067;48.114;11.694;2023-03-01T02:59:28;15.07;;;12.33;;
16502;SDS011;53067;48.114;11.694;2023-03-01T03:01:57;17.10;;;13.17;;
16502;SDS011;53067;48.114;11.694;2023-03-01T03:04:27;19.57;;;12.97;;
16502;SDS011;53067;48.114;11.694;2023-03-01T03:06:54;17.50;;;13.17;;
16502;SDS011;53067;48.114;11.694;2023-03-01T03:09:22;18.10;;;12.63;;
16502;SDS011;53067;48.114;11.694;2023-03-01T03:11:49;18.57;;;12.50;;
16502;SDS011;53067;48.114;11.694;2023-03-01T03:14:17;17.60;;;12.37;;
16502;SDS011;53067;48.114;11.694;2023-03-01T03:16:46;19.77;;;13.93;;
16502;SDS011;53067;48.114;11.694;2023-03-01T03:19:16;18.60;;;13.50;;
16502;SDS011;53067;48.114;11.694;2023-03-01T03:21:46;19.57;;;13.73;;
16502;SDS011;53067;48.114;11.694;2023-03-01T03:24:34;14.80;;;11.87;;
16502;SDS011;53067;48.114;11.694;2023-03-01T03:27:04;15.90;;;11.97;;
16502;SDS011;53067;48.114;11.694;2023-03-01T03:29:32;18.57;;;13.07;;
16502;SDS011;53067;48.114;11.694;2023-03-01T03:32:00;18.57;;;13.00;;
16502;SDS011;53067;48.114;11.694;2023-03-01T03:34:27;15.77;;;11.77;;
16502;SDS011;53067;48.114;11.694;2023-03-01T03:36:55;18.20;;;12.70;;
16502;SDS011;53067;48.114;11.694;2023-03-01T03:39:25;18.00;;;13.77;;
16502;SDS011;53067;48.114;11.694;2023-03-01T03:41:54;16.73;;;12.70;;
16502;SDS011;53067;48.114;11.694;2023-03-01T03:44:22;20.33;;;12.77;;
16502;SDS011;53067;48.114;11.694;2023-03-01T03:46:49;17.33;;;12.77;;
16502;SDS011;53067;48.114;11.694;2023-03-01T03:49:17;19.50;;;12.90;;
16502;SDS011;53067;48.114;11.694;2023-03-01T03:51:45;18.83;;;13.53;;
16502;SDS011;53067;48.114;11.694;2023-03-01T03:54:12;17.13;;;13.40;;
16502;SDS011;53067;48.114;11.694;2023-03-01T03:56:40;16.83;;;13.30;;
16502;SDS011;53067;48.114;11.694;2023-03-01T03:59:09;15.50;;;12.57;;
16502;SDS011;53067;48.114;11.694;2023-03-01T04:01:37;18.80;;;13.40;;
16502;SDS011;53067;48.114;11.694;2023-03-01T04:04:04;16.37;;;12.63;;
16502;SDS011;53067;48.114;11.694;2023-03-01T04:06:33;16.87;;;12.50;;
16502;SDS011;53067;48.114;11.694;2023-03-01T04:09:02;18.37;;;12.90;;
16502;SDS011;53067;48.114;11.694;2023-03-01T04:11:29;16.30;;;12.60;;
16502;SDS011;53067;48.114;11.694;2023-03-01T04:14:05;18.40;;;12.47;;
16502;SDS011;53067;48.114;11.694;2023-03-01T04:16:32;16.17;;;12.43;;
16502;SDS011;53067;48.114;11.694;2023-03-01T04:19:09;19.37;;;13.53;;
16502;SDS011;53067;48.114;11.694;2023-03-01T04:21:37;18.80;;;13.17;;
16502;SDS011;53067;48.114;11.694;2023-03-01T04:24:04;20.17;;;12.67;;
16502;SDS011;53067;48.114;11.694;2023-03-01T04:26:32;17.23;;;13.47;;
16502;SDS011;53067;48.114;11.694;2023-03-01T04:29:00;20.27;;;13.33;;
16502;SDS011;53067;48.114;11.694;2023-03-01T04:31:27;20.63;;;13.80;;
16502;SDS011;53067;48.114;11.694;2023-03-01T04:33:55;19.77;;;14.00;;
16502;SDS011;53067;48.114;11.694;2023-03-01T04:36:28;18.90;;;13.93;;
16502;SDS011;53067;48.114;11.694;2023-03-01T04:38:54;22.00;;;13.57;;
16502;SDS011;53067;48.114;11.694;2023-03-01T04:41:23;16.00;;;12.57;;
16502;SDS011;53067;48.114;11.694;2023-03-01T04:43:51;18.10;;;12.97;;
16502;SDS011;53067;48.114;11.694;2023-03-01T04:46:19;18.13;;;12.63;;
16502;SDS011;53067;48.114;11.694;2023-03-01T04:48:48;16.37;;;12.77;;
16502;SDS011;53067;48.114;11.694;2023-03-01T04:51:16;18.73;;;13.40;;
16502;SDS011;53067;48.114;11.694;2023-03-01T04:53:44;16.80;;;12.80;;
16502;SDS011;53067;48.114;11.694;2023-03-01T04:56:12;19.53;;;13.47;;
16502;SDS011;53067;48.114;11.694;2023-03-01T04:58:40;19.47;;;13.13;;
16502;SDS011;53067;48.114;11.694;2023-03-01T05:01:09;17.63;;;13.87;;
16502;SDS011;53067;48.114;11.694;2023-03-01T05:03:41;17.50;;;13.07;;
16502;SDS011;53067;48.114;11.694;2023-03-01T05:06:19;18.57;;;12.77;;
16502;SDS011;53067;48.114;11.694;2023-03-01T05:08:47;16.73;;;13.03;;
16502;SDS011;53067;48.114;11.694;2023-03-01T05:11:14;18.40;;;13.87;;
16502;SDS011;53067;48.114;11.694;2023-03-01T05:13:42;20.30;;;14.33;;
16502;SDS011;53067;48.114;11.694;2023-03-01T05:16:10;18.67;;;13.50;;
16502;SDS011;53067;48.114;11.694;2023-03-01T05:18:37;16.90;;;12.67;;
16502;SDS011;53067;48.114;11.694;2023-03-01T05:21:07;18.33;;;13.83;;
16502;SDS011;53067;48.114;11.694;2023-03-01T05:23:36;19.47;;;13.43;;
16502;SDS011;53067;48.114;11.694;2023-03-01T05:26:05;18.50;;;13.47;;
16502;SDS011;53067;48.114;11.694;2023-03-01T05:28:33;17.63;;;13.13;;
16502;SDS011;53067;48.114;11.694;2023-03-01T05:31:01;18.23;;;12.53;;
16502;SDS011;53067;48.114;11.694;2023-03-01T05:33:29;19.20;;;13.20;;
16502;SDS011;53067;48.114;11.694;2023-03-01T05:35:59;18.37;;;13.37;;
16502;SDS011;53067;48.114;11.694;2023-03-01T05:38:26;19.43;;;13.17;;
16502;SDS011;53067;48.114;11.694;2023-03-01T05:40:54;17.97;;;13.60;;
16502;SDS011;53067;48.114;11.694;2023-03-01T05:43:21;17.37;;;13.23;;
16502;SDS011;53067;48.114;11.694;2023-03-01T05:45:49;19.93;;;13.50;;
16502;SDS011;53067;48.114;11.694;2023-03-01T05:48:16;18.97;;;13.80;;
16502;SDS011;53067;48.114;11.694;2023-03-01T05:50:45;16.30;;;12.77;;
16502;SDS011;53067;48.114;11.694;2023-03-01T05:53:14;20.20;;;14.03;;
16502;SDS011;53067;48.114;11.694;2023-03-01T05:55:45;18.30;;;12.73;;
16502;SDS011;53067;48.114;11.694;2023-03-01T05:58:14;18.23;;;13.17;;
16502;SDS011;53067;48.114;11.694;2023-03-01T06:00:44;20.33;;;13.90;;
16502;SDS011;53067;48.114;11.694;2023-03-01T06:03:14;20.73;;;13.30;;
16502;SDS011;53067;48.114;11.694;2023-03-01T06:05:43;17.97;;;13.20;;
16502;SDS011;53067;48.114;11.694;2023-03-01T06:08:11;20.97;;;13.73;;
16502;SDS011;53067;48.114;11.694;2023-03-01T06:10:39;20.73;;;14.07;;
16502;SDS011;53067;48.114;11.694;2023-03-01T06:13:07;19.83;;;13.63;;
16502;SDS011;53067;48.114;11.694;2023-03-01T06:15:35;17.93;;;13.07;;
16502;SDS011;53067;48.114;11.694;2023-03-01T06:18:03;19.60;;;14.63;;
16502;SDS011;53067;48.114;11.694;2023-03-01T06:20:30;20.27;;;13.77;;
16502;SDS011;53067;48.114;11.694;2023-03-01T06:22:58;18.30;;;14.17;;
16502;SDS011;53067;48.114;11.694;2023-03-01T06:25:26;19.10;;;13.90;;
16502;SDS011;53067;48.114;11.694;2023-03-01T06:27:54;20.53;;;14.57;;
16502;SDS011;53067;48.114;11.694;2023-03-01T06:30:22;19.27;;;13.93;;
16502;SDS011;53067;48.114;11.694;2023-03-01T06:32:51;19.87;;;13.40;;
16502;SDS011;53067;48.114;11.694;2023-03-01T06:35:21;20.87;;;14.33;;
16502;SDS011;53067;48.114;11.694;2023-03-01T06:37:48;20.40;;;14.23;;
16502;SDS011;53067;48.114;11.694;2023-03-01T06:40:16;21.80;;;14.30;;
16502;SDS011;53067;48.114;11.694;2023-03-01T06:42:47;22.13;;;13.80;;
16502;SDS011;53067;48.114;11.694;2023-03-01T06:45:18;20.37;;;13.63;;
16502;SDS011;53067;48.114;11.694;2023-03-01T06:47:47;21.20;;;14.57;;
16502;SDS011;53067;48.114;11.694;2023-03-01T06:50:15;20.00;;;13.90;;
16502;SDS011;53067;48.114;11.694;2023-03-01T06:52:44;22.67;;;14.10;;
16502;SDS011;53067;48.114;11.694;2023-03-01T06:55:12;22.20;;;14.80;;
16502;SDS011;53067;48.114;11.694;2023-03-01T06:57:40;22.90;;;13.40;;
16502;SDS011;53067;48.114;11.694;2023-03-01T07:00:08;20.60;;;14.40;;
16502;SDS011;53067;48.114;11.694;2023-03-01T07:02:37;20.07;;;13.17;;
16502;SDS011;53067;48.114;11.694;2023-03-01T07:05:05;18.83;;;13.97;;
16502;SDS011;53067;48.114;11.694;2023-03-01T07:07:32;22.53;;;14.13;;
16502;SDS011;53067;48.114;11.694;2023-03-01T07:10:00;19.27;;;14.10;;
16502;SDS011;53067;48.114;11.694;2023-03-01T07:12:28;19.27;;;13.83;;
16502;SDS011;53067;48.114;11.694;2023-03-01T07:14:55;17.97;;;14.00;;
16502;SDS011;53067;48.114;11.694;2023-03-01T07:17:23;21.57;;;14.73;;
16502;SDS011;53067;48.114;11.694;2023-03-01T07:19:50;19.07;;;13.63;;
16502;SDS011;53067;48.114;11.694;2023-03-01T07:22:18;22.53;;;14.33;;
16502;SDS011;53067;48.114;11.694;2023-03-01T07:24:45;18.40;;;13.73;;
16502;SDS011;53067;48.114;11.694;2023-03-01T07:27:13;20.73;;;13.37;;
16502;SDS011;53067;48.114;11.694;2023-03-01T07:29:40;20.40;;;14.07;;
16502;SDS011;53067;48.114;11.694;2023-03-01T07:32:08;20.97;;;13.93;;
16502;SDS011;53067;48.114;11.694;2023-03-01T07:34:37;19.77;;;14.10;;
16502;SDS011;53067;48.114;11.694;2023-03-01T07:37:04;22.73;;;15.13;;
16502;SDS011;53067;48.114;11.694;2023-03-01T07:39:32;20.10;;;14.67;;
16502;SDS011;53067;48.114;11.694;2023-03-01T07:41:59;21.60;;;13.97;;
16502;SDS011;53067;48.114;11.694;2023-03-01T07:44:27;20.90;;;14.73;;
16502;SDS011;53067;48.114;11.694;2023-03-01T07:46:55;19.93;;;14.23;;
16502;SDS011;53067;48.114;11.694;2023-03-01T07:49:23;21.97;;;14.87;;
16502;SDS011;53067;48.114;11.694;2023-03-01T07:51:53;18.13;;;13.70;;
16502;SDS011;53067;48.114;11.694;2023-03-01T07:54:20;20.03;;;13.27;;
16502;SDS011;53067;48.114;11.694;2023-03-01T07:56:48;21.40;;;14.53;;
16502;SDS011;53067;48.114;11.694;2023-03-01T07:59:16;24.03;;;14.90;;
16502;SDS011;53067;48.114;11.694;2023-03-01T08:01:43;17.67;;;13.40;;
16502;SDS011;53067;48.114;11.694;2023-03-01T08:04:11;23.00;;;14.57;;
16502;SDS011;53067;48.114;11.694;2023-03-01T08:06:38;22.07;;;14.00;;
16502;SDS011;53067;48.114;11.694;2023-03-01T08:09:06;21.13;;;13.80;;
16502;SDS011;53067;48.114;11.694;2023-03-01T08:11:34;19.30;;;13.37;;
16502;SDS011;53067;48.114;11.694;2023-03-01T08:14:01;20.53;;;14.37;;
16502;SDS011;53067;48.114;11.694;2023-03-01T08:16:29;17.57;;;14.13;;
16502;SDS011;53067;48.114;11.694;2023-03-01T08:19:02;19.87;;;14.27;;
16502;SDS011;53067;48.114;11.694;2023-03-01T08:21:34;23.20;;;13.77;;
16502;SDS011;53067;48.114;11.694;2023-03-01T08:24:02;23.50;;;14.10;;
16502;SDS011;53067;48.114;11.694;2023-03-01T08:26:31;21.00;;;13.53;;
16502;SDS011;53067;48.114;11.694;2023-03-01T08:29:00;19.53;;;13.47;;
16502;SDS011;53067;48.114;11.694;2023-03-01T08:31:32;22.13;;;14.43;;
16502;SDS011;53067;48.114;11.694;2023-03-01T08:33:59;19.53;;;14.27;;
16502;SDS011;53067;48.114;11.694;2023-03-01T08:36:29;26.43;;;14.50;;
16502;SDS011;53067;48.114;11.694;2023-03-01T08:39:05;22.53;;;13.67;;
16502;SDS011;53067;48.114;11.694;2023-03-01T08:41:34;17.83;;;13.33;;
16502;SDS011;53067;48.114;11.694;2023-03-01T08:44:02;20.07;;;13.73;;
16502;SDS011;53067;48.114;11.694;2023-03-01T08:46:31;24.43;;;14.43;;
16502;SDS011;53067;48.114;11.694;2023-03-01T08:49:05;20.90;;;13.57;;
16502;SDS011;53067;48.114;11.694;2023-03-01T08:51:34;21.00;;;14.27;;
16502;SDS011;53067;48.114;11.694;2023-03-01T08:54:11;19.07;;;13.60;;
16502;SDS011;53067;48.114;11.694;2023-03-01T08:56:35;20.63;;;14.30;;
16502;SDS011;53067;48.114;11.694;2023-03-01T08:59:03;19.97;;;15.13;;
16502;SDS011;53067;48.114;11.694;2023-03-01T09:01:31;22.47;;;14.87;;
16502;SDS011;53067;48.114;11.694;2023-03-01T09:03:58;19.17;;;14.43;;
16502;SDS011;53067;48.114;11.694;2023-03-01T09:06:26;19.53;;;14.43;;
16502;SDS011;53067;48.114;11.694;2023-03-01T09:08:56;20.70;;;14.00;;
16502;SDS011;53067;48.114;11.694;2023-03-01T09:11:24;21.83;;;14.53;;
16502;SDS011;53067;48.114;11.694;2023-03-01T09:13:51;20.97;;;14.20;;
16502;SDS011;53067;48.114;11.694;2023-03-01T09:16:19;19.00;;;13.83;;
16502;SDS011;53067;48.114;11.694;2023-03-01T09:18:49;20.07;;;14.93;;
16502;SDS011;53067;48.114;11.694;2023-03-01T09:21:18;22.53;;;15.10;;
16502;SDS011;53067;48.114;11.694;2023-03-01T09:23:48;22.47;;;14.63;;
16502;SDS011;53067;48.114;11.694;2023-03-01T09:26:17;20.73;;;14.67;;
16502;SDS011;53067;48.114;11.694;2023-03-01T09:28:48;19.53;;;14.40;;
16502;SDS011;53067;48.114;11.694;2023-03-01T09:31:18;20.23;;;14.00;;
16502;SDS011;53067;48.114;11.694;2023-03-01T09:33:47;20.83;;;14.37;;
16502;SDS011;53067;48.114;11.694;2023-03-01T09:36:18;20.23;;;14.47;;
16502;SDS011;53067;48.114;11.694;2023-03-01T09:38:48;23.40;;;14.70;;
16502;SDS011;53067;48.114;11.694;2023-03-01T09:41:29;22.57;;;15.33;;
16502;SDS011;53067;48.114;11.694;2023-03-01T09:43:57;21.00;;;14.63;;
16502;SDS011;53067;48.114;11.694;2023-03-01T09:46:23;21.17;;;14.40;;
16502;SDS011;53067;48.114;11.694;2023-03-01T09:49:04;18.27;;;13.63;;
16502;SDS011;53067;48.114;11.694;2023-03-01T09:51:30;18.17;;;12.97;;
16502;SDS011;53067;48.114;11.694;2023-03-01T09:54:03;22.70;;;14.70;;
16502;SDS011;53067;48.114;11.694;2023-03-01T09:56:36;19.80;;;12.97;;
16502;SDS011;53067;48.114;11.694;2023-03-01T10:02:10;19.80;;;14.17;;
16502;SDS011;53067;48.114;11.694;2023-03-01T10:04:48;19.17;;;14.40;;
16502;SDS011;53067;48.114;11.694;2023-03-01T10:10:06;29.97;;;14.17;;
16502;SDS011;53067;48.114;11.694;2023-03-01T10:12:35;23.27;;;14.50;;
16502;SDS011;53067;48.114;11.694;2023-03-01T10:15:14;20.17;;;13.77;;
16502;SDS011;53067;48.114;11.694;2023-03-01T10:17:48;19.97;;;14.67;;
16502;SDS011;53067;48.114;11.694;2023-03-01T10:20:28;20.77;;;14.83;;
16502;SDS011;53067;48.114;11.694;2023-03-01T10:23:02;19.13;;;14.23;;
16502;SDS011;53067;48.114;11.694;2023-03-01T10:25:38;18.80;;;13.43;;
16502;SDS011;53067;48.114;11.694;2023-03-01T10:28:31;21.23;;;14.30;;
16502;SDS011;53067;48.114;11.694;2023-03-01T10:31:04;20.93;;;14.23;;
16502;SDS011;53067;48.114;11.694;2023-03-01T10:33:35;19.03;;;13.83;;
16502;SDS011;53067;48.114;11.694;2023-03-01T10:36:06;17.03;;;13.07;;
16502;SDS011;53067;48.114;11.694;2023-03-01T10:38:54;19.07;;;14.20;;
16502;SDS011;53067;48.114;11.694;2023-03-01T10:41:24;16.97;;;12.87;;
16502;SDS011;53067;48.114;11.694;2023-03-01T10:43:54;19.63;;;13.43;;
16502;SDS011;53067;48.114;11.694;2023-03-01T10:46:24;19.57;;;12.87;;
16502;SDS011;53067;48.114;11.694;2023-03-01T10:49:16;19.53;;;12.73;;
16502;SDS011;53067;48.114;11.694;2023-03-01T10:52:11;17.63;;;13.50;;
16502;SDS011;53067;48.114;11.694;2023-03-01T10:54:31;17.43;;;12.57;;
16502;SDS011;53067;48.114;11.694;2023-03-01T10:57:03;17.60;;;13.33;;
16502;SDS011;53067;48.114;11.694;2023-03-01T10:59:33;17.97;;;13.80;;
16502;SDS011;53067;48.114;11.694;2023-03-01T11:05:02;19.10;;;14.23;;
16502;SDS011;53067;48.114;11.694;2023-03-01T11:08:04;16.73;;;14.68;;
16502;SDS011;53067;48.114;11.694;2023-03-01T11:10:17;16.10;;;14.50;;
16502;SDS011;53067;48.114;11.694;2023-03-01T11:13:15;15.38;;;13.70;;
16502;SDS011;53067;48.114;11.694;2023-03-01T11:15:58;16.73;;;14.60;;
16502;SDS011;53067;48.114;11.694;2023-03-01T11:18:30;16.97;;;15.10;;
16502;SDS011;53067;48.114;11.694;2023-03-01T11:20:58;17.07;;;15.38;;
16502;SDS011;53067;48.114;11.694;2023-03-01T11:23:28;17.48;;;15.03;;
16502;SDS011;53067;48.114;11.694;2023-03-01T11:26:04;17.50;;;14.95;;
16502;SDS011;53067;48.114;11.694;2023-03-01T11:28:28;18.35;;;15.88;;
16502;SDS011;53067;48.114;11.694;2023-03-01T11:31:03;17.60;;;15.78;;
16502;SDS011;53067;48.114;11.694;2023-03-01T11:33:43;17.80;;;15.95;;
16502;SDS011;53067;48.114;11.694;2023-03-01T11:42:05;16.23;;;14.58;;
16502;SDS011;53067;48.114;11.694;2023-03-01T11:44:52;18.52;;;16.25;;
16502;SDS011;53067;48.114;11.694;2023-03-01T11:47:33;17.67;;;15.88;;
16502;SDS011;53067;48.114;11.694;2023-03-01T11:50:18;18.98;;;17.00;;
16502;SDS011;53067;48.114;11.694;2023-03-01T11:53:01;17.40;;;15.60;;
16502;SDS011;53067;48.114;11.694;2023-03-01T12:10:34;16.55;;;14.85;;
16502;SDS011;53067;48.114;11.694;2023-03-01T12:17:44;18.23;;;16.35;;
16502;SDS011;53067;48.114;11.694;2023-03-01T12:20:39;17.07;;;15.48;;
16502;SDS011;53067;48.114;11.694;2023-03-01T12:23:17;18.02;;;15.75;;
16502;SDS011;53067;48.114;11.694;2023-03-01T12:31:57;17.50;;;15.63;;
16502;SDS011;53067;48.114;11.694;2023-03-01T12:34:49;17.65;;;15.60;;
16502;SDS011;53067;48.114;11.694;2023-03-01T12:48:28;17.90;;;15.40;;
16502;SDS011;53067;48.114;11.694;2023-03-01T12:51:13;18.17;;;16.17;;
16502;SDS011;53067;48.114;11.694;2023-03-01T12:53:46;17.32;;;15.70;;
16502;SDS011;53067;48.114;11.694;2023-03-01T12:56:20;17.42;;;15.63;;
16502;SDS011;53067;48.114;11.694;2023-03-01T13:01:40;17.48;;;15.68;;
16502;SDS011;53067;48.114;11.694;2023-03-01T13:17:59;17.07;;;15.38;;
16502;SDS011;53067;48.114;11.694;2023-03-01T13:20:45;18.15;;;16.27;;
16502;SDS011;53067;48.114;11.694;2023-03-01T13:26:07;16.80;;;15.18;;
16502;SDS011;53067;48.114;11.694;2023-03-01T13:33:46;16.70;;;14.95;;
16502;SDS011;53067;48.114;11.694;2023-03-01T13:39:02;17.75;;;15.83;;
16502;SDS011;53067;48.114;11.694;2023-03-01T13:44:36;17.32;;;15.63;;
16502;SDS011;53067;48.114;11.694;2023-03-01T13:49:42;18.45;;;16.48;;
16502;SDS011;53067;48.114;11.694;2023-03-01T13:57:53;21.00;;;16.97;;
16502;SDS011;53067;48.114;11.694;2023-03-01T14:00:27;19.17;;;16.40;;
16502;SDS011;53067;48.114;11.694;2023-03-01T14:03:17;19.83;;;15.27;;
16502;SDS011;53067;48.114;11.694;2023-03-01T14:05:39;19.23;;;15.70;;
16502;SDS011;53067;48.114;11.694;2023-03-01T14:08:19;18.57;;;16.57;;
16502;SDS011;53067;48.114;11.694;2023-03-01T14:10:59;18.57;;;15.73;;
16502;SDS011;53067;48.114;11.694;2023-03-01T14:16:08;19.97;;;16.60;;
16502;SDS011;53067;48.114;11.694;2023-03-01T14:18:48;19.67;;;16.03;;
16502;SDS011;53067;48.114;11.694;2023-03-01T14:21:14;19.20;;;15.53;;
16502;SDS011;53067;48.114;11.694;2023-03-01T14:23:43;18.60;;;15.27;;
16502;SDS011;53067;48.114;11.694;2023-03-01T14:26:12;17.77;;;15.23;;
16502;SDS011;53067;48.114;11.694;2023-03-01T14:28:39;21.93;;;16.13;;
16502;SDS011;53067;48.114;11.694;2023-03-01T14:34:01;19.53;;;15.03;;
16502;SDS011;53067;48.114;11.694;2023-03-01T14:36:31;18.17;;;15.23;;
16502;SDS011;53067;48.114;11.694;2023-03-01T14:39:00;18.17;;;14.77;;
16502;SDS011;53067;48.114;11.694;2023-03-01T14:41:31;19.47;;;15.43;;
16502;SDS011;53067;48.114;11.694;2023-03-01T14:44:02;18.87;;;15.37;;
16502;SDS011;53067;48.114;11.694;2023-03-01T14:46:33;18.60;;;15.10;;
16502;SDS011;53067;48.114;11.694;2023-03-01T14:51:40;19.47;;;14.50;;
16502;SDS011;53067;48.114;11.694;2023-03-01T14:54:24;20.20;;;14.77;;
16502;SDS011;53067;48.114;11.694;2023-03-01T14:56:53;18.13;;;14.60;;
16502;SDS011;53067;48.114;11.694;2023-03-01T14:59:22;17.50;;;14.50;;
16502;SDS011;53067;48.114;11.694;2023-03-01T15:01:50;16.43;;;13.33;;
16502;SDS011;53067;48.114;11.694;2023-03-01T15:04:20;18.57;;;14.87;;
16502;SDS011;53067;48.114;11.694;2023-03-01T15:06:51;23.10;;;14.83;;
16502;SDS011;53067;48.114;11.694;2023-03-01T15:09:20;19.57;;;14.33;;
16502;SDS011;53067;48.114;11.694;2023-03-01T15:11:49;18.10;;;14.20;;
16502;SDS011;53067;48.114;11.694;2023-03-01T15:17:17;17.70;;;13.77;;
16502;SDS011;53067;48.114;11.694;2023-03-01T15:19:59;16.03;;;13.70;;
16502;SDS011;53067;48.114;11.694;2023-03-01T15:22:31;17.10;;;13.93;;
16502;SDS011;53067;48.114;11.694;2023-03-01T15:24:58;17.50;;;13.80;;
16502;SDS011;53067;48.114;11.694;2023-03-01T15:27:26;17.27;;;13.57;;
16502;SDS011;53067;48.114;11.694;2023-03-01T15:29:58;17.57;;;13.60;;
16502;SDS011;53067;48.114;11.694;2023-03-01T15:32:32;21.30;;;15.07;;
16502;SDS011;53067;48.114;11.694;2023-03-01T15:41:03;17.70;;;13.93;;
16502;SDS011;53067;48.114;11.694;2023-03-01T15:43:40;23.70;;;13.63;;
16502;SDS011;53067;48.114;11.694;2023-03-01T15:46:16;20.13;;;14.30;;
16502;SDS011;53067;48.114;11.694;2023-03-01T15:48:46;20.00;;;13.27;;
16502;SDS011;53067;48.114;11.694;2023-03-01T15:51:19;21.43;;;13.97;;
16502;SDS011;53067;48.114;11.694;2023-03-01T15:53:50;18.50;;;13.23;;
16502;SDS011;53067;48.114;11.694;2023-03-01T15:56:19;19.37;;;13.37;;
16502;SDS011;53067;48.114;11.694;2023-03-01T15:58:47;16.07;;;13.23;;
16502;SDS011;53067;48.114;11.694;2023-03-01T16:01:15;19.77;;;13.80;;
16502;SDS011;53067;48.114;11.694;2023-03-01T16:03:44;18.33;;;13.77;;
16502;SDS011;53067;48.114;11.694;2023-03-01T16:06:12;19.30;;;13.20;;
16502;SDS011;53067;48.114;11.694;2023-03-01T16:08:39;19.13;;;13.83;;
16502;SDS011;53067;48.114;11.694;2023-03-01T16:11:13;16.43;;;13.13;;
16502;SDS011;53067;48.114;11.694;2023-03-01T16:13:41;18.60;;;13.67;;
16502;SDS011;53067;48.114;11.694;2023-03-01T16:16:09;18.40;;;13.37;;